sensor_id;sensor_type;location;lat;lon;timestamp;temperature;humidity
37874;DHT22;23709;48.078;11.684;2023-04-08T00:01:32;5.10;99.90
37874;DHT22;23709;48.078;11.684;2023-04-08T00:04:04;5.00;99.90
37874;DHT22;23709;48.078;11.684;2023-04-08T00:06:37;5.00;99.90
37874;DHT22;23709;48.078;11.684;2023-04-08T00:09:10;4.90;99.90
37874;DHT22;23709;48.078;11.684;2023-04-08T00:11:42;4.90;99.90
37874;DHT22;23709;48.078;11.684;2023-04-08T00:14:14;4.90;99.90
37874;DHT22;23709;48.078;11.684;2023-04-08T00:16:46;4.90;99.90
37874;DHT22;23709;48.078;11.684;2023-04-08T00:19:19;4.90;99.90
37874;DHT22;23709;48.078;11.684;2023-04-08T00:21:51;5.00;99.90
37874;DHT22;23709;48.078;11.684;2023-04-08T00:24:24;5.00;99.90
37874;DHT22;23709;48.078;11.684;2023-04-08T00:26:57;5.00;99.90
37874;DHT22;23709;48.078;11.684;2023-04-08T00:29:29;5.00;99.90
37874;DHT22;23709;48.078;11.684;2023-04-08T00:32:01;4.90;99.90
37874;DHT22;23709;48.078;11.684;2023-04-08T00:34:34;4.90;99.90
37874;DHT22;23709;48.078;11.684;2023-04-08T00:37:08;4.90;99.90
37874;DHT22;23709;48.078;11.684;2023-04-08T00:39:40;5.00;99.90
37874;DHT22;23709;48.078;11.684;2023-04-08T00:42:13;4.90;99.90
37874;DHT22;23709;48.078;11.684;2023-04-08T00:44:45;4.80;99.90
37874;DHT22;23709;48.078;11.684;2023-04-08T00:47:17;4.80;99.90
37874;DHT22;23709;48.078;11.684;2023-04-08T00:49:50;4.70;99.90
37874;DHT22;23709;48.078;11.684;2023-04-08T00:52:22;4.70;99.90
37874;DHT22;23709;48.078;11.684;2023-04-08T00:54:55;4.70;99.90
37874;DHT22;23709;48.078;11.684;2023-04-08T00:57:28;4.70;99.90
37874;DHT22;23709;48.078;11.684;2023-04-08T01:00:00;4.80;99.90
37874;DHT22;23709;48.078;11.684;2023-04-08T01:02:44;4.80;99.90
37874;DHT22;23709;48.078;11.684;2023-04-08T01:05:55;4.90;99.90
37874;DHT22;23709;48.078;11.684;2023-04-08T01:08:26;4.90;99.90
37874;DHT22;23709;48.078;11.684;2023-04-08T01:11:05;4.90;99.90
37874;DHT22;23709;48.078;11.684;2023-04-08T01:13:41;4.80;99.90
37874;DHT22;23709;48.078;11.684;2023-04-08T01:16:15;4.70;99.90
37874;DHT22;23709;48.078;11.684;2023-04-08T01:18:49;4.70;99.90
37874;DHT22;23709;48.078;11.684;2023-04-08T01:21:23;4.70;99.90
37874;DHT22;23709;48.078;11.684;2023-04-08T01:24:08;4.70;99.90
37874;DHT22;23709;48.078;11.684;2023-04-08T01:26:42;4.70;99.90
37874;DHT22;23709;48.078;11.684;2023-04-08T01:29:15;4.70;99.90
37874;DHT22;23709;48.078;11.684;2023-04-08T01:31:48;4.70;99.90
37874;DHT22;23709;48.078;11.684;2023-04-08T01:34:22;4.70;99.90
37874;DHT22;23709;48.078;11.684;2023-04-08T01:36:58;4.70;99.90
37874;DHT22;23709;48.078;11.684;2023-04-08T01:39:32;4.70;99.90
37874;DHT22;23709;48.078;11.684;2023-04-08T01:42:07;4.70;99.90
37874;DHT22;23709;48.078;11.684;2023-04-08T01:44:41;4.60;99.90
37874;DHT22;23709;48.078;11.684;2023-04-08T01:47:14;4.60;99.90
37874;DHT22;23709;48.078;11.684;2023-04-08T01:49:49;4.60;99.90
37874;DHT22;23709;48.078;11.684;2023-04-08T01:52:24;4.60;99.90
37874;DHT22;23709;48.078;11.684;2023-04-08T01:54:58;4.60;99.90
37874;DHT22;23709;48.078;11.684;2023-04-08T01:57:32;4.60;99.90
37874;DHT22;23709;48.078;11.684;2023-04-08T02:00:10;4.50;99.90
37874;DHT22;23709;48.078;11.684;2023-04-08T02:02:56;4.50;99.90
37874;DHT22;23709;48.078;11.684;2023-04-08T02:05:29;4.50;99.90
37874;DHT22;23709;48.078;11.684;2023-04-08T02:08:02;4.50;99.90
37874;DHT22;23709;48.078;11.684;2023-04-08T02:10:34;4.60;99.90
37874;DHT22;23709;48.078;11.684;2023-04-08T02:13:08;4.60;99.90
37874;DHT22;23709;48.078;11.684;2023-04-08T02:15:44;4.50;99.90
37874;DHT22;23709;48.078;11.684;2023-04-08T02:18:25;4.50;99.90
37874;DHT22;23709;48.078;11.684;2023-04-08T02:21:09;4.50;99.90
37874;DHT22;23709;48.078;11.684;2023-04-08T02:23:47;4.60;99.90
37874;DHT22;23709;48.078;11.684;2023-04-08T02:26:21;4.50;99.90
37874;DHT22;23709;48.078;11.684;2023-04-08T02:28:55;4.60;99.90
37874;DHT22;23709;48.078;11.684;2023-04-08T02:31:31;4.50;99.90
37874;DHT22;23709;48.078;11.684;2023-04-08T02:34:05;4.50;99.90
37874;DHT22;23709;48.078;11.684;2023-04-08T02:36:39;4.60;99.90
37874;DHT22;23709;48.078;11.684;2023-04-08T02:39:13;4.50;99.90
37874;DHT22;23709;48.078;11.684;2023-04-08T02:41:45;4.60;99.90
37874;DHT22;23709;48.078;11.684;2023-04-08T02:44:18;4.50;99.90
37874;DHT22;23709;48.078;11.684;2023-04-08T02:46:50;4.50;99.90
37874;DHT22;23709;48.078;11.684;2023-04-08T02:49:22;4.50;99.90
37874;DHT22;23709;48.078;11.684;2023-04-08T02:51:55;4.50;99.90
37874;DHT22;23709;48.078;11.684;2023-04-08T02:54:27;4.50;99.90
37874;DHT22;23709;48.078;11.684;2023-04-08T02:57:00;4.50;99.90
37874;DHT22;23709;48.078;11.684;2023-04-08T02:59:32;4.40;99.90
37874;DHT22;23709;48.078;11.684;2023-04-08T03:02:05;4.50;99.90
37874;DHT22;23709;48.078;11.684;2023-04-08T03:04:37;4.40;99.90
37874;DHT22;23709;48.078;11.684;2023-04-08T03:07:10;4.30;99.90
37874;DHT22;23709;48.078;11.684;2023-04-08T03:09:42;4.40;99.90
37874;DHT22;23709;48.078;11.684;2023-04-08T03:12:14;4.50;99.90
37874;DHT22;23709;48.078;11.684;2023-04-08T03:14:47;4.40;99.90
37874;DHT22;23709;48.078;11.684;2023-04-08T03:17:25;4.40;99.90
37874;DHT22;23709;48.078;11.684;2023-04-08T03:19:57;4.40;99.90
37874;DHT22;23709;48.078;11.684;2023-04-08T03:22:30;4.40;99.90
37874;DHT22;23709;48.078;11.684;2023-04-08T03:25:03;4.50;99.90
37874;DHT22;23709;48.078;11.684;2023-04-08T03:27:35;4.40;99.90
37874;DHT22;23709;48.078;11.684;2023-04-08T03:30:07;4.50;99.90
37874;DHT22;23709;48.078;11.684;2023-04-08T03:32:40;4.60;99.90
37874;DHT22;23709;48.078;11.684;2023-04-08T03:35:12;4.60;99.90
37874;DHT22;23709;48.078;11.684;2023-04-08T03:37:46;4.60;99.90
37874;DHT22;23709;48.078;11.684;2023-04-08T03:40:19;4.50;99.90
37874;DHT22;23709;48.078;11.684;2023-04-08T03:42:51;4.60;99.90
37874;DHT22;23709;48.078;11.684;2023-04-08T03:45:25;4.60;99.90
37874;DHT22;23709;48.078;11.684;2023-04-08T03:47:57;4.70;99.90
37874;DHT22;23709;48.078;11.684;2023-04-08T03:50:29;4.70;99.90
37874;DHT22;23709;48.078;11.684;2023-04-08T03:53:05;4.80;99.90
37874;DHT22;23709;48.078;11.684;2023-04-08T03:55:42;4.70;99.90
37874;DHT22;23709;48.078;11.684;2023-04-08T03:58:15;4.70;99.90
37874;DHT22;23709;48.078;11.684;2023-04-08T04:00:47;4.70;99.90
37874;DHT22;23709;48.078;11.684;2023-04-08T04:03:19;4.60;99.90
37874;DHT22;23709;48.078;11.684;2023-04-08T04:05:52;4.70;99.90
37874;DHT22;23709;48.078;11.684;2023-04-08T04:08:25;4.70;99.90
37874;DHT22;23709;48.078;11.684;2023-04-08T04:11:00;4.70;99.90
37874;DHT22;23709;48.078;11.684;2023-04-08T04:13:32;4.70;99.90
37874;DHT22;23709;48.078;11.684;2023-04-08T04:16:05;4.80;99.90
37874;DHT22;23709;48.078;11.684;2023-04-08T04:18:37;4.80;99.90
37874;DHT22;23709;48.078;11.684;2023-04-08T04:21:10;4.80;99.90
37874;DHT22;23709;48.078;11.684;2023-04-08T04:23:42;4.80;99.90
37874;DHT22;23709;48.078;11.684;2023-04-08T04:26:14;4.80;99.90
37874;DHT22;23709;48.078;11.684;2023-04-08T04:28:47;4.90;99.90
37874;DHT22;23709;48.078;11.684;2023-04-08T04:31:21;4.90;99.90
37874;DHT22;23709;48.078;11.684;2023-04-08T04:33:54;4.90;99.90
37874;DHT22;23709;48.078;11.684;2023-04-08T04:36:30;4.80;99.90
37874;DHT22;23709;48.078;11.684;2023-04-08T04:39:03;4.90;99.90
37874;DHT22;23709;48.078;11.684;2023-04-08T04:41:35;4.90;99.90
37874;DHT22;23709;48.078;11.684;2023-04-08T04:44:11;5.00;99.90
37874;DHT22;23709;48.078;11.684;2023-04-08T04:46:47;5.10;99.90
37874;DHT22;23709;48.078;11.684;2023-04-08T04:49:19;5.10;99.90
37874;DHT22;23709;48.078;11.684;2023-04-08T04:51:52;5.10;99.90
37874;DHT22;23709;48.078;11.684;2023-04-08T04:54:24;5.20;99.90
37874;DHT22;23709;48.078;11.684;2023-04-08T04:57:00;5.20;99.90
37874;DHT22;23709;48.078;11.684;2023-04-08T04:59:32;5.20;99.90
37874;DHT22;23709;48.078;11.684;2023-04-08T05:02:04;5.30;99.90
37874;DHT22;23709;48.078;11.684;2023-04-08T05:04:37;5.40;99.90
37874;DHT22;23709;48.078;11.684;2023-04-08T05:07:10;5.40;99.90
37874;DHT22;23709;48.078;11.684;2023-04-08T05:09:42;5.40;99.90
37874;DHT22;23709;48.078;11.684;2023-04-08T05:12:14;5.40;99.90
37874;DHT22;23709;48.078;11.684;2023-04-08T05:14:48;5.50;99.90
37874;DHT22;23709;48.078;11.684;2023-04-08T05:17:20;5.50;99.90
37874;DHT22;23709;48.078;11.684;2023-04-08T05:19:52;5.60;99.90
37874;DHT22;23709;48.078;11.684;2023-04-08T05:22:24;5.70;99.90
37874;DHT22;23709;48.078;11.684;2023-04-08T05:24:57;5.60;99.90
37874;DHT22;23709;48.078;11.684;2023-04-08T05:27:29;5.70;99.90
37874;DHT22;23709;48.078;11.684;2023-04-08T05:30:01;5.70;99.90
37874;DHT22;23709;48.078;11.684;2023-04-08T05:32:34;5.70;99.90
37874;DHT22;23709;48.078;11.684;2023-04-08T05:35:06;5.80;99.90
37874;DHT22;23709;48.078;11.684;2023-04-08T05:37:40;5.80;99.90
37874;DHT22;23709;48.078;11.684;2023-04-08T05:40:13;5.90;99.90
37874;DHT22;23709;48.078;11.684;2023-04-08T05:42:45;5.90;99.90
37874;DHT22;23709;48.078;11.684;2023-04-08T05:45:18;5.90;99.90
37874;DHT22;23709;48.078;11.684;2023-04-08T05:47:50;5.90;99.90
37874;DHT22;23709;48.078;11.684;2023-04-08T05:50:22;5.90;99.90
37874;DHT22;23709;48.078;11.684;2023-04-08T05:52:54;5.90;99.90
37874;DHT22;23709;48.078;11.684;2023-04-08T05:55:27;5.90;99.90
37874;DHT22;23709;48.078;11.684;2023-04-08T05:57:59;5.90;99.90
37874;DHT22;23709;48.078;11.684;2023-04-08T06:00:31;5.90;99.90
37874;DHT22;23709;48.078;11.684;2023-04-08T06:03:04;6.00;99.90
37874;DHT22;23709;48.078;11.684;2023-04-08T06:05:36;6.00;99.90
37874;DHT22;23709;48.078;11.684;2023-04-08T06:08:08;6.00;99.90
37874;DHT22;23709;48.078;11.684;2023-04-08T06:10:48;6.00;99.90
37874;DHT22;23709;48.078;11.684;2023-04-08T06:13:21;6.00;99.90
37874;DHT22;23709;48.078;11.684;2023-04-08T06:15:56;6.10;99.90
37874;DHT22;23709;48.078;11.684;2023-04-08T06:18:29;6.10;99.90
37874;DHT22;23709;48.078;11.684;2023-04-08T06:21:01;6.10;99.90
37874;DHT22;23709;48.078;11.684;2023-04-08T06:23:34;6.20;99.90
37874;DHT22;23709;48.078;11.684;2023-04-08T06:26:06;6.20;99.90
37874;DHT22;23709;48.078;11.684;2023-04-08T06:28:38;6.30;99.90
37874;DHT22;23709;48.078;11.684;2023-04-08T06:31:11;6.30;99.90
37874;DHT22;23709;48.078;11.684;2023-04-08T06:33:43;6.30;99.90
37874;DHT22;23709;48.078;11.684;2023-04-08T06:36:15;6.40;99.90
37874;DHT22;23709;48.078;11.684;2023-04-08T06:38:47;6.40;99.90
37874;DHT22;23709;48.078;11.684;2023-04-08T06:41:20;6.50;99.90
37874;DHT22;23709;48.078;11.684;2023-04-08T06:43:53;6.50;99.90
37874;DHT22;23709;48.078;11.684;2023-04-08T06:46:25;6.60;99.90
37874;DHT22;23709;48.078;11.684;2023-04-08T06:48:58;6.60;99.90
37874;DHT22;23709;48.078;11.684;2023-04-08T06:51:31;6.70;99.90
37874;DHT22;23709;48.078;11.684;2023-04-08T06:54:04;6.70;99.90
37874;DHT22;23709;48.078;11.684;2023-04-08T06:56:36;6.70;99.90
37874;DHT22;23709;48.078;11.684;2023-04-08T06:59:08;6.70;99.90
37874;DHT22;23709;48.078;11.684;2023-04-08T07:01:41;6.80;99.90
37874;DHT22;23709;48.078;11.684;2023-04-08T07:04:15;6.90;99.90
37874;DHT22;23709;48.078;11.684;2023-04-08T07:06:48;6.90;99.90
37874;DHT22;23709;48.078;11.684;2023-04-08T07:09:21;6.90;99.90
37874;DHT22;23709;48.078;11.684;2023-04-08T07:11:53;6.90;99.90
37874;DHT22;23709;48.078;11.684;2023-04-08T07:14:25;6.90;99.90
37874;DHT22;23709;48.078;11.684;2023-04-08T07:16:57;7.00;99.90
37874;DHT22;23709;48.078;11.684;2023-04-08T07:19:30;7.00;99.90
37874;DHT22;23709;48.078;11.684;2023-04-08T07:22:02;7.00;99.90
37874;DHT22;23709;48.078;11.684;2023-04-08T07:24:34;7.00;99.90
37874;DHT22;23709;48.078;11.684;2023-04-08T07:27:07;7.10;99.90
37874;DHT22;23709;48.078;11.684;2023-04-08T07:29:40;7.10;99.90
37874;DHT22;23709;48.078;11.684;2023-04-08T07:32:15;7.20;99.90
37874;DHT22;23709;48.078;11.684;2023-04-08T07:34:47;7.20;99.90
37874;DHT22;23709;48.078;11.684;2023-04-08T07:37:20;7.10;99.90
37874;DHT22;23709;48.078;11.684;2023-04-08T07:39:52;7.10;99.90
37874;DHT22;23709;48.078;11.684;2023-04-08T07:42:24;7.10;99.90
37874;DHT22;23709;48.078;11.684;2023-04-08T07:44:57;7.20;99.90
37874;DHT22;23709;48.078;11.684;2023-04-08T07:47:29;7.10;99.90
37874;DHT22;23709;48.078;11.684;2023-04-08T07:50:02;7.10;99.90
37874;DHT22;23709;48.078;11.684;2023-04-08T07:52:35;7.10;99.90
37874;DHT22;23709;48.078;11.684;2023-04-08T07:55:07;7.20;99.90
37874;DHT22;23709;48.078;11.684;2023-04-08T07:57:39;7.10;99.90
37874;DHT22;23709;48.078;11.684;2023-04-08T08:00:12;7.00;99.90
37874;DHT22;23709;48.078;11.684;2023-04-08T08:02:51;7.00;99.90
37874;DHT22;23709;48.078;11.684;2023-04-08T08:05:24;7.00;99.90
37874;DHT22;23709;48.078;11.684;2023-04-08T08:07:56;6.90;99.90
37874;DHT22;23709;48.078;11.684;2023-04-08T08:10:29;6.80;99.90
37874;DHT22;23709;48.078;11.684;2023-04-08T08:13:04;6.80;99.90
37874;DHT22;23709;48.078;11.684;2023-04-08T08:15:37;6.80;99.90
37874;DHT22;23709;48.078;11.684;2023-04-08T08:18:10;6.80;99.90
37874;DHT22;23709;48.078;11.684;2023-04-08T08:20:42;6.80;99.90
37874;DHT22;23709;48.078;11.684;2023-04-08T08:23:14;6.90;99.90
37874;DHT22;23709;48.078;11.684;2023-04-08T08:25:47;6.80;99.90
37874;DHT22;23709;48.078;11.684;2023-04-08T08:28:19;6.80;99.90
37874;DHT22;23709;48.078;11.684;2023-04-08T08:30:51;6.80;99.90
37874;DHT22;23709;48.078;11.684;2023-04-08T08:33:24;6.70;99.90
37874;DHT22;23709;48.078;11.684;2023-04-08T08:35:57;6.60;99.90
37874;DHT22;23709;48.078;11.684;2023-04-08T08:38:29;6.50;99.90
37874;DHT22;23709;48.078;11.684;2023-04-08T08:41:02;6.30;99.90
37874;DHT22;23709;48.078;11.684;2023-04-08T08:43:35;6.30;99.90
37874;DHT22;23709;48.078;11.684;2023-04-08T08:46:09;6.30;99.90
37874;DHT22;23709;48.078;11.684;2023-04-08T08:48:43;6.30;99.90
37874;DHT22;23709;48.078;11.684;2023-04-08T08:51:15;6.20;99.90
37874;DHT22;23709;48.078;11.684;2023-04-08T08:53:48;6.20;99.90
37874;DHT22;23709;48.078;11.684;2023-04-08T08:56:20;6.20;99.90
37874;DHT22;23709;48.078;11.684;2023-04-08T08:58:52;6.20;99.90
37874;DHT22;23709;48.078;11.684;2023-04-08T09:01:33;6.10;99.90
37874;DHT22;23709;48.078;11.684;2023-04-08T09:06:45;6.10;99.90
37874;DHT22;23709;48.078;11.684;2023-04-08T09:09:18;6.20;99.90
37874;DHT22;23709;48.078;11.684;2023-04-08T09:12:02;6.20;99.90
37874;DHT22;23709;48.078;11.684;2023-04-08T09:14:36;6.00;99.90
37874;DHT22;23709;48.078;11.684;2023-04-08T09:17:09;6.10;99.90
37874;DHT22;23709;48.078;11.684;2023-04-08T09:20:04;6.10;99.90
37874;DHT22;23709;48.078;11.684;2023-04-08T09:22:56;6.10;99.90
37874;DHT22;23709;48.078;11.684;2023-04-08T09:25:33;6.20;99.90
37874;DHT22;23709;48.078;11.684;2023-04-08T09:28:18;6.30;99.90
37874;DHT22;23709;48.078;11.684;2023-04-08T09:30:51;6.30;99.90
37874;DHT22;23709;48.078;11.684;2023-04-08T09:33:29;6.40;99.90
37874;DHT22;23709;48.078;11.684;2023-04-08T09:36:02;6.30;99.90
37874;DHT22;23709;48.078;11.684;2023-04-08T09:38:35;6.40;99.90
37874;DHT22;23709;48.078;11.684;2023-04-08T09:41:07;6.40;99.90
37874;DHT22;23709;48.078;11.684;2023-04-08T09:43:47;6.40;99.90
37874;DHT22;23709;48.078;11.684;2023-04-08T09:47:07;6.50;99.90
37874;DHT22;23709;48.078;11.684;2023-04-08T09:49:39;6.40;99.90
37874;DHT22;23709;48.078;11.684;2023-04-08T09:52:20;6.40;99.90
37874;DHT22;23709;48.078;11.684;2023-04-08T09:55:04;6.20;99.90
37874;DHT22;23709;48.078;11.684;2023-04-08T10:00:33;6.00;99.90
37874;DHT22;23709;48.078;11.684;2023-04-08T10:05:53;6.00;99.90
37874;DHT22;23709;48.078;11.684;2023-04-08T10:08:27;6.20;99.90
37874;DHT22;23709;48.078;11.684;2023-04-08T10:10:59;6.30;99.90
37874;DHT22;23709;48.078;11.684;2023-04-08T10:13:32;6.30;99.90
37874;DHT22;23709;48.078;11.684;2023-04-08T10:16:21;6.40;99.90
37874;DHT22;23709;48.078;11.684;2023-04-08T10:18:54;6.40;99.90
37874;DHT22;23709;48.078;11.684;2023-04-08T10:21:35;6.60;99.90
37874;DHT22;23709;48.078;11.684;2023-04-08T10:24:09;6.80;99.90
37874;DHT22;23709;48.078;11.684;2023-04-08T10:26:43;6.80;99.90
37874;DHT22;23709;48.078;11.684;2023-04-08T10:32:00;6.90;99.90
37874;DHT22;23709;48.078;11.684;2023-04-08T10:34:33;7.00;99.90
37874;DHT22;23709;48.078;11.684;2023-04-08T10:37:06;7.40;99.90
37874;DHT22;23709;48.078;11.684;2023-04-08T10:39:48;7.60;99.90
37874;DHT22;23709;48.078;11.684;2023-04-08T10:42:26;7.50;99.90
37874;DHT22;23709;48.078;11.684;2023-04-08T10:44:59;7.40;99.90
37874;DHT22;23709;48.078;11.684;2023-04-08T10:47:31;7.40;99.90
37874;DHT22;23709;48.078;11.684;2023-04-08T10:50:15;7.60;99.90
37874;DHT22;23709;48.078;11.684;2023-04-08T10:52:54;7.60;99.90
37874;DHT22;23709;48.078;11.684;2023-04-08T10:55:27;7.50;99.90
37874;DHT22;23709;48.078;11.684;2023-04-08T10:58:07;7.40;99.90
37874;DHT22;23709;48.078;11.684;2023-04-08T11:00:39;7.40;99.90
37874;DHT22;23709;48.078;11.684;2023-04-08T11:03:12;7.40;99.90
37874;DHT22;23709;48.078;11.684;2023-04-08T11:05:48;7.30;99.90
37874;DHT22;23709;48.078;11.684;2023-04-08T11:08:27;7.10;99.90
37874;DHT22;23709;48.078;11.684;2023-04-08T11:11:00;7.20;99.90
37874;DHT22;23709;48.078;11.684;2023-04-08T11:13:33;7.10;99.90
37874;DHT22;23709;48.078;11.684;2023-04-08T11:16:07;7.10;99.90
37874;DHT22;23709;48.078;11.684;2023-04-08T11:18:50;7.00;99.90
37874;DHT22;23709;48.078;11.684;2023-04-08T11:21:23;7.00;99.90
37874;DHT22;23709;48.078;11.684;2023-04-08T11:23:57;7.00;99.90
37874;DHT22;23709;48.078;11.684;2023-04-08T11:26:29;7.00;99.90
37874;DHT22;23709;48.078;11.684;2023-04-08T11:29:02;7.00;99.90
37874;DHT22;23709;48.078;11.684;2023-04-08T11:31:35;6.90;99.90
37874;DHT22;23709;48.078;11.684;2023-04-08T11:34:07;6.90;99.90
37874;DHT22;23709;48.078;11.684;2023-04-08T11:36:40;6.90;99.90
37874;DHT22;23709;48.078;11.684;2023-04-08T11:39:12;6.90;99.90
37874;DHT22;23709;48.078;11.684;2023-04-08T11:41:45;6.90;99.90
37874;DHT22;23709;48.078;11.684;2023-04-08T11:44:18;6.90;99.90
37874;DHT22;23709;48.078;11.684;2023-04-08T11:46:51;6.80;99.90
37874;DHT22;23709;48.078;11.684;2023-04-08T11:49:43;6.60;99.90
37874;DHT22;23709;48.078;11.684;2023-04-08T11:52:15;6.60;99.90
37874;DHT22;23709;48.078;11.684;2023-04-08T11:54:48;6.50;99.90
37874;DHT22;23709;48.078;11.684;2023-04-08T11:57:27;6.50;99.90
37874;DHT22;23709;48.078;11.684;2023-04-08T12:00:00;6.40;99.90
37874;DHT22;23709;48.078;11.684;2023-04-08T12:02:41;6.30;99.90
37874;DHT22;23709;48.078;11.684;2023-04-08T12:05:14;6.40;99.90
37874;DHT22;23709;48.078;11.684;2023-04-08T12:07:47;6.40;99.90
37874;DHT22;23709;48.078;11.684;2023-04-08T12:10:19;6.40;99.90
37874;DHT22;23709;48.078;11.684;2023-04-08T12:12:52;6.40;99.90
37874;DHT22;23709;48.078;11.684;2023-04-08T12:15:24;6.40;99.90
37874;DHT22;23709;48.078;11.684;2023-04-08T12:17:57;6.40;99.90
37874;DHT22;23709;48.078;11.684;2023-04-08T12:20:29;6.50;99.90
37874;DHT22;23709;48.078;11.684;2023-04-08T12:23:01;6.50;99.90
37874;DHT22;23709;48.078;11.684;2023-04-08T12:25:33;6.50;99.90
37874;DHT22;23709;48.078;11.684;2023-04-08T12:28:06;6.50;99.90
37874;DHT22;23709;48.078;11.684;2023-04-08T12:30:41;6.50;99.90
37874;DHT22;23709;48.078;11.684;2023-04-08T12:33:13;6.40;99.90
37874;DHT22;23709;48.078;11.684;2023-04-08T12:35:45;6.40;99.90
37874;DHT22;23709;48.078;11.684;2023-04-08T12:38:17;6.40;99.90
37874;DHT22;23709;48.078;11.684;2023-04-08T12:40:50;6.30;99.90
37874;DHT22;23709;48.078;11.684;2023-04-08T12:43:22;6.30;99.90
37874;DHT22;23709;48.078;11.684;2023-04-08T12:45:55;6.20;99.90
37874;DHT22;23709;48.078;11.684;2023-04-08T12:48:28;6.20;99.90
37874;DHT22;23709;48.078;11.684;2023-04-08T12:51:00;6.20;99.90
37874;DHT22;23709;48.078;11.684;2023-04-08T12:53:32;6.10;99.90
37874;DHT22;23709;48.078;11.684;2023-04-08T12:56:05;6.20;99.90
37874;DHT22;23709;48.078;11.684;2023-04-08T12:58:38;6.20;99.90
37874;DHT22;23709;48.078;11.684;2023-04-08T13:01:10;6.20;99.90
37874;DHT22;23709;48.078;11.684;2023-04-08T13:03:43;6.20;99.90
37874;DHT22;23709;48.078;11.684;2023-04-08T13:06:17;6.20;99.90
37874;DHT22;23709;48.078;11.684;2023-04-08T13:08:50;6.10;99.90
37874;DHT22;23709;48.078;11.684;2023-04-08T13:11:22;6.10;99.90
37874;DHT22;23709;48.078;11.684;2023-04-08T13:13:54;6.00;99.90
37874;DHT22;23709;48.078;11.684;2023-04-08T13:16:27;6.00;99.90
37874;DHT22;23709;48.078;11.684;2023-04-08T13:18:59;6.00;99.90
37874;DHT22;23709;48.078;11.684;2023-04-08T13:21:32;6.00;99.90
37874;DHT22;23709;48.078;11.684;2023-04-08T13:24:05;6.00;99.90
37874;DHT22;23709;48.078;11.684;2023-04-08T13:26:37;6.00;99.90
37874;DHT22;23709;48.078;11.684;2023-04-08T13:29:10;5.90;99.90
37874;DHT22;23709;48.078;11.684;2023-04-08T13:31:42;5.90;99.90
37874;DHT22;23709;48.078;11.684;2023-04-08T13:34:14;5.90;99.90
37874;DHT22;23709;48.078;11.684;2023-04-08T13:36:47;5.90;99.90
37874;DHT22;23709;48.078;11.684;2023-04-08T13:39:19;5.80;99.90
37874;DHT22;23709;48.078;11.684;2023-04-08T13:41:51;5.80;99.90
37874;DHT22;23709;48.078;11.684;2023-04-08T13:44:23;5.80;99.90
37874;DHT22;23709;48.078;11.684;2023-04-08T13:46:55;5.80;99.90
37874;DHT22;23709;48.078;11.684;2023-04-08T13:49:27;5.80;99.90
37874;DHT22;23709;48.078;11.684;2023-04-08T13:52:00;5.70;99.90
37874;DHT22;23709;48.078;11.684;2023-04-08T13:54:32;5.80;99.90
37874;DHT22;23709;48.078;11.684;2023-04-08T13:57:04;5.80;99.90
37874;DHT22;23709;48.078;11.684;2023-04-08T13:59:37;5.80;99.90
37874;DHT22;23709;48.078;11.684;2023-04-08T14:02:09;5.70;99.90
37874;DHT22;23709;48.078;11.684;2023-04-08T14:04:41;5.70;99.90
37874;DHT22;23709;48.078;11.684;2023-04-08T14:07:16;5.70;99.90
37874;DHT22;23709;48.078;11.684;2023-04-08T14:09:48;5.70;99.90
37874;DHT22;23709;48.078;11.684;2023-04-08T14:12:20;5.60;99.90
37874;DHT22;23709;48.078;11.684;2023-04-08T14:14:52;5.50;99.90
37874;DHT22;23709;48.078;11.684;2023-04-08T14:17:24;5.60;99.90
37874;DHT22;23709;48.078;11.684;2023-04-08T14:19:57;5.70;99.90
37874;DHT22;23709;48.078;11.684;2023-04-08T14:22:30;5.70;99.90
37874;DHT22;23709;48.078;11.684;2023-04-08T14:25:02;5.60;99.90
37874;DHT22;23709;48.078;11.684;2023-04-08T14:27:35;5.70;99.90
37874;DHT22;23709;48.078;11.684;2023-04-08T14:30:21;5.70;99.90
37874;DHT22;23709;48.078;11.684;2023-04-08T14:32:54;5.80;99.90
37874;DHT22;23709;48.078;11.684;2023-04-08T14:35:26;5.90;99.90
37874;DHT22;23709;48.078;11.684;2023-04-08T14:37:58;5.90;99.90
37874;DHT22;23709;48.078;11.684;2023-04-08T14:40:30;5.80;99.90
37874;DHT22;23709;48.078;11.684;2023-04-08T14:43:03;5.70;99.90
37874;DHT22;23709;48.078;11.684;2023-04-08T14:45:35;5.80;99.90
37874;DHT22;23709;48.078;11.684;2023-04-08T14:48:07;5.90;99.90
37874;DHT22;23709;48.078;11.684;2023-04-08T14:50:40;5.60;99.90
37874;DHT22;23709;48.078;11.684;2023-04-08T14:53:12;5.70;99.90
37874;DHT22;23709;48.078;11.684;2023-04-08T14:55:44;5.70;99.90
37874;DHT22;23709;48.078;11.684;2023-04-08T14:58:17;5.70;99.90
37874;DHT22;23709;48.078;11.684;2023-04-08T15:00:51;5.80;99.90
37874;DHT22;23709;48.078;11.684;2023-04-08T15:03:24;5.70;99.90
37874;DHT22;23709;48.078;11.684;2023-04-08T15:06:00;5.70;99.90
37874;DHT22;23709;48.078;11.684;2023-04-08T15:08:32;5.80;99.90
37874;DHT22;23709;48.078;11.684;2023-04-08T15:11:06;5.70;99.90
37874;DHT22;23709;48.078;11.684;2023-04-08T15:13:38;5.70;99.90
37874;DHT22;23709;48.078;11.684;2023-04-08T15:16:10;5.80;99.90
37874;DHT22;23709;48.078;11.684;2023-04-08T15:18:43;5.80;99.90
37874;DHT22;23709;48.078;11.684;2023-04-08T15:21:15;5.90;99.90
37874;DHT22;23709;48.078;11.684;2023-04-08T15:23:47;5.90;99.90
37874;DHT22;23709;48.078;11.684;2023-04-08T15:26:19;5.80;99.90
37874;DHT22;23709;48.078;11.684;2023-04-08T15:28:55;5.90;99.90
37874;DHT22;23709;48.078;11.684;2023-04-08T15:31:30;5.90;99.90
37874;DHT22;23709;48.078;11.684;2023-04-08T15:34:03;5.80;99.90
37874;DHT22;23709;48.078;11.684;2023-04-08T15:36:35;5.70;99.90
37874;DHT22;23709;48.078;11.684;2023-04-08T15:39:08;5.70;99.90
37874;DHT22;23709;48.078;11.684;2023-04-08T15:41:40;5.70;99.90
37874;DHT22;23709;48.078;11.684;2023-04-08T15:44:13;5.80;99.90
37874;DHT22;23709;48.078;11.684;2023-04-08T15:46:45;5.90;99.90
37874;DHT22;23709;48.078;11.684;2023-04-08T15:49:18;6.00;99.90
37874;DHT22;23709;48.078;11.684;2023-04-08T15:51:51;6.10;99.90
37874;DHT22;23709;48.078;11.684;2023-04-08T15:54:24;6.20;99.90
37874;DHT22;23709;48.078;11.684;2023-04-08T15:57:00;6.80;99.90
37874;DHT22;23709;48.078;11.684;2023-04-08T15:59:33;7.30;99.90
37874;DHT22;23709;48.078;11.684;2023-04-08T16:02:05;7.30;99.90
37874;DHT22;23709;48.078;11.684;2023-04-08T16:04:38;7.50;99.90
37874;DHT22;23709;48.078;11.684;2023-04-08T16:07:10;7.60;99.90
37874;DHT22;23709;48.078;11.684;2023-04-08T16:09:42;7.30;99.90
37874;DHT22;23709;48.078;11.684;2023-04-08T16:12:15;7.10;99.90
37874;DHT22;23709;48.078;11.684;2023-04-08T16:14:47;7.10;99.90
37874;DHT22;23709;48.078;11.684;2023-04-08T16:17:20;6.60;99.90
37874;DHT22;23709;48.078;11.684;2023-04-08T16:19:52;6.50;99.90
37874;DHT22;23709;48.078;11.684;2023-04-08T16:22:26;6.50;99.90